createdAt,value
2019-03-20T00:00:08.685Z,2.20
2019-03-20T00:02:38.036Z,2.20
2019-03-20T00:05:07.433Z,2.40
2019-03-20T00:07:36.673Z,2.40
2019-03-20T00:10:06.371Z,2.50
2019-03-20T00:12:35.718Z,2.50
2019-03-20T00:15:05.879Z,2.40
2019-03-20T00:17:35.193Z,2.40
2019-03-20T00:20:05.218Z,2.30
2019-03-20T00:22:34.526Z,2.20
2019-03-20T00:25:03.702Z,2.10
2019-03-20T00:27:33.009Z,2.20
2019-03-20T00:30:02.347Z,2.20
2019-03-20T00:32:31.742Z,2.10
2019-03-20T00:35:01.543Z,1.90
2019-03-20T00:37:30.898Z,1.90
2019-03-20T00:40:00.373Z,2.00
2019-03-20T00:42:29.590Z,2.00
2019-03-20T00:44:58.912Z,2.00
2019-03-20T00:47:28.180Z,2.00
2019-03-20T00:49:58.226Z,1.90
2019-03-20T00:52:27.558Z,1.90
2019-03-20T00:54:56.744Z,1.70
2019-03-20T00:57:26.013Z,1.80
2019-03-20T00:59:55.279Z,1.80
2019-03-20T01:02:24.448Z,1.90
2019-03-20T01:04:53.725Z,1.90
2019-03-20T01:07:22.993Z,1.80
2019-03-20T01:09:52.300Z,1.80
2019-03-20T01:12:21.845Z,1.80
2019-03-20T01:14:51.114Z,1.90
2019-03-20T01:17:20.306Z,1.80
2019-03-20T01:19:49.584Z,1.70
2019-03-20T01:22:18.857Z,1.70
2019-03-20T01:24:48.051Z,1.60
2019-03-20T01:27:17.359Z,1.50
2019-03-20T01:29:46.579Z,1.40
2019-03-20T01:32:15.758Z,1.40
2019-03-20T01:34:45.047Z,1.50
2019-03-20T01:37:14.293Z,1.60
2019-03-20T01:39:43.694Z,1.60
2019-03-20T01:42:12.972Z,1.60
2019-03-20T01:44:42.263Z,1.60
2019-03-20T01:47:11.447Z,1.60
2019-03-20T01:49:40.747Z,1.50
2019-03-20T01:52:10.265Z,1.40
2019-03-20T01:54:39.600Z,1.50
2019-03-20T01:57:08.890Z,1.30
2019-03-20T01:59:38.162Z,1.40
2019-03-20T02:02:07.455Z,1.40
2019-03-20T02:04:36.810Z,1.30
2019-03-20T02:07:06.135Z,1.20
2019-03-20T02:09:35.383Z,1.20
2019-03-20T02:12:04.571Z,1.30
2019-03-20T02:14:33.805Z,1.20
2019-03-20T02:17:03.080Z,1.20
2019-03-20T02:19:32.371Z,1.00
2019-03-20T02:22:01.954Z,1.00
2019-03-20T02:24:31.439Z,1.10
2019-03-20T02:27:00.710Z,1.10
2019-03-20T02:29:30.126Z,1.30
2019-03-20T02:31:59.435Z,1.40
2019-03-20T02:34:28.765Z,1.40
2019-03-20T02:36:58.237Z,1.30
2019-03-20T02:39:27.580Z,1.20
2019-03-20T02:41:56.887Z,1.10
2019-03-20T02:44:26.148Z,1.00
2019-03-20T02:46:55.394Z,1.00
2019-03-20T02:49:24.610Z,0.90
2019-03-20T02:51:53.885Z,0.90
2019-03-20T02:54:23.180Z,0.80
2019-03-20T02:56:52.605Z,0.70
2019-03-20T02:59:21.902Z,0.70
2019-03-20T03:01:51.162Z,0.60
2019-03-20T03:04:20.946Z,0.60
2019-03-20T03:06:50.230Z,0.50
2019-03-20T03:09:19.495Z,0.50
2019-03-20T03:11:48.754Z,0.50
2019-03-20T03:14:18.037Z,0.60
2019-03-20T03:16:47.336Z,0.70
2019-03-20T03:19:16.600Z,0.70
2019-03-20T03:21:46.151Z,0.70
2019-03-20T03:24:15.510Z,0.60
2019-03-20T03:26:44.756Z,0.50
2019-03-20T03:29:13.908Z,0.50
2019-03-20T03:31:43.224Z,0.40
2019-03-20T03:34:12.512Z,0.50
2019-03-20T03:36:41.765Z,0.60
2019-03-20T03:39:11.026Z,0.60
2019-03-20T03:41:40.258Z,0.60
2019-03-20T03:44:09.518Z,0.70
2019-03-20T03:46:38.877Z,0.60
2019-03-20T03:49:08.134Z,0.50
2019-03-20T03:51:37.401Z,0.50
2019-03-20T03:54:06.722Z,0.60
2019-03-20T03:56:36.110Z,0.60
2019-03-20T03:59:05.740Z,0.60
2019-03-20T04:01:35.063Z,0.60
2019-03-20T04:04:04.373Z,0.60
2019-03-20T04:06:35.976Z,0.70
2019-03-20T04:09:07.043Z,0.70
2019-03-20T04:11:36.468Z,0.60
2019-03-20T04:14:05.823Z,0.40
2019-03-20T04:16:35.123Z,0.30
2019-03-20T04:19:04.505Z,0.40
2019-03-20T04:21:33.825Z,0.40
2019-03-20T04:24:03.116Z,0.50
2019-03-20T04:26:32.395Z,0.40
2019-03-20T04:29:01.683Z,0.30
2019-03-20T04:31:31.267Z,0.30
2019-03-20T04:34:00.630Z,0.30
2019-03-20T04:36:29.894Z,0.30
2019-03-20T04:38:59.169Z,0.30
2019-03-20T04:41:28.461Z,0.20
2019-03-20T04:43:57.794Z,0.20
2019-03-20T04:46:26.980Z,0.10
2019-03-20T04:48:56.208Z,0.00
2019-03-20T04:51:25.444Z,0.00
2019-03-20T04:53:54.780Z,0.10
2019-03-20T04:56:24.109Z,0.10
2019-03-20T04:58:53.405Z,0.10
2019-03-20T05:01:22.812Z,0.10
2019-03-20T05:03:52.128Z,0.20
2019-03-20T05:06:21.334Z,0.20
2019-03-20T05:08:50.965Z,0.30
2019-03-20T05:11:20.240Z,0.30
2019-03-20T05:13:49.528Z,0.20
2019-03-20T05:16:18.881Z,0.10
2019-03-20T05:18:48.354Z,-0.10
2019-03-20T05:21:17.664Z,-0.10
2019-03-20T05:23:46.987Z,0.00
2019-03-20T05:26:16.234Z,0.10
2019-03-20T05:28:45.521Z,0.10
2019-03-20T05:31:15.003Z,0.10
2019-03-20T05:33:44.296Z,0.10
2019-03-20T05:36:13.859Z,0.00
2019-03-20T05:38:43.107Z,0.00
2019-03-20T05:41:12.446Z,0.00
2019-03-20T05:43:41.783Z,0.10
2019-03-20T05:46:11.174Z,0.00
2019-03-20T05:48:40.415Z,0.00
2019-03-20T05:51:09.749Z,0.00
2019-03-20T05:53:38.978Z,-0.10
2019-03-20T05:56:08.281Z,-0.10
2019-03-20T05:58:37.454Z,0.00
2019-03-20T06:01:06.821Z,0.10
2019-03-20T06:03:36.103Z,0.10
2019-03-20T06:06:05.685Z,0.10
2019-03-20T06:08:35.108Z,0.20
2019-03-20T06:11:04.495Z,0.30
2019-03-20T06:13:33.832Z,0.40
2019-03-20T06:16:03.093Z,0.50
2019-03-20T06:18:32.626Z,0.60
2019-03-20T06:21:01.952Z,0.60
2019-03-20T06:23:31.192Z,0.70
2019-03-20T06:26:00.497Z,0.80
2019-03-20T06:28:29.791Z,1.00
2019-03-20T06:30:58.986Z,0.90
2019-03-20T06:33:28.362Z,0.80
2019-03-20T06:35:57.626Z,0.80
2019-03-20T06:38:26.937Z,0.80
2019-03-20T06:40:56.235Z,0.90
2019-03-20T06:43:25.436Z,0.90
2019-03-20T06:45:54.786Z,1.00
2019-03-20T06:48:24.331Z,1.00
2019-03-20T06:50:53.629Z,1.10
2019-03-20T06:53:22.969Z,1.20
2019-03-20T06:55:52.237Z,1.20
2019-03-20T06:58:21.495Z,1.40
2019-03-20T07:01:01.539Z,1.50
2019-03-20T07:03:57.149Z,1.70
2019-03-20T07:06:39.117Z,1.80
2019-03-20T07:09:12.776Z,2.00
2019-03-20T07:11:42.223Z,2.20
2019-03-20T07:14:11.424Z,2.40
2019-03-20T07:16:40.604Z,2.50
2019-03-20T07:19:09.937Z,2.70
2019-03-20T07:21:39.211Z,3.00
2019-03-20T07:24:08.476Z,3.20
2019-03-20T07:26:37.810Z,3.40
2019-03-20T07:29:07.183Z,3.70
2019-03-20T07:31:36.648Z,3.90
2019-03-20T07:34:06.105Z,4.10
2019-03-20T07:36:35.324Z,4.40
2019-03-20T07:39:07.320Z,4.60
2019-03-20T07:41:36.773Z,4.80
2019-03-20T07:44:06.210Z,5.00
2019-03-20T07:46:35.648Z,5.20
2019-03-20T07:49:05.116Z,5.50
2019-03-20T07:51:34.343Z,5.60
2019-03-20T07:54:03.649Z,5.80
2019-03-20T07:56:32.904Z,6.00
2019-03-20T07:59:02.179Z,6.30
2019-03-20T08:01:31.486Z,6.40
2019-03-20T08:04:00.675Z,6.70
2019-03-20T08:06:30.003Z,6.80
2019-03-20T08:08:59.280Z,7.00
2019-03-20T08:11:28.560Z,7.40
2019-03-20T08:13:57.837Z,7.80
2019-03-20T08:16:27.121Z,8.20
2019-03-20T08:18:56.396Z,8.00
2019-03-20T08:21:25.922Z,8.40
2019-03-20T08:23:55.253Z,8.80
2019-03-20T08:26:24.538Z,9.00
2019-03-20T08:28:53.790Z,9.20
2019-03-20T08:31:23.080Z,9.50
2019-03-20T08:33:52.393Z,9.20
2019-03-20T08:36:21.669Z,9.70
2019-03-20T08:38:50.970Z,9.90
2019-03-20T08:41:20.235Z,9.80
2019-03-20T08:43:49.535Z,9.70
2019-03-20T08:46:18.774Z,10.30
2019-03-20T08:48:48.486Z,10.50
2019-03-20T08:51:17.925Z,10.90
2019-03-20T08:53:47.237Z,10.70
2019-03-20T08:56:16.454Z,10.30
2019-03-20T08:58:45.785Z,11.00
2019-03-20T09:01:15.085Z,11.20
2019-03-20T09:03:44.346Z,10.90
2019-03-20T09:06:13.517Z,11.00
2019-03-20T09:08:42.816Z,11.60
2019-03-20T09:11:12.261Z,11.90
2019-03-20T09:13:41.764Z,11.60
2019-03-20T09:16:11.068Z,12.00
2019-03-20T09:18:40.364Z,11.80
2019-03-20T09:21:09.652Z,12.10
2019-03-20T09:23:40.771Z,12.40
2019-03-20T09:26:09.930Z,12.40
2019-03-20T09:28:39.292Z,12.30
2019-03-20T09:31:08.728Z,11.40
2019-03-20T09:33:38.244Z,10.50
2019-03-20T09:36:07.536Z,10.90
2019-03-20T09:38:43.510Z,11.70
2019-03-20T09:41:07.987Z,12.20
2019-03-20T09:43:37.277Z,12.70
2019-03-20T09:46:06.478Z,12.90
2019-03-20T09:48:35.739Z,13.20
2019-03-20T09:51:05.014Z,13.50
2019-03-20T09:53:34.298Z,13.60
2019-03-20T09:56:03.610Z,13.30
2019-03-20T09:58:32.904Z,12.60
2019-03-20T10:01:02.165Z,11.60
2019-03-20T10:03:31.341Z,11.80
2019-03-20T10:06:00.681Z,12.20
2019-03-20T10:08:29.965Z,12.70
2019-03-20T10:10:59.290Z,12.10
2019-03-20T10:13:28.701Z,12.40
2019-03-20T10:15:58.069Z,12.80
2019-03-20T10:18:27.331Z,12.80
2019-03-20T10:20:56.656Z,13.10
2019-03-20T10:23:25.900Z,13.30
2019-03-20T10:25:55.209Z,13.40
2019-03-20T10:28:24.514Z,13.30
2019-03-20T10:30:53.886Z,13.50
2019-03-20T10:33:23.215Z,13.50
2019-03-20T10:35:52.969Z,13.40
2019-03-20T10:38:22.370Z,13.60
2019-03-20T10:40:51.823Z,12.20
2019-03-20T10:43:21.170Z,11.80
2019-03-20T10:45:50.998Z,12.30
2019-03-20T10:48:20.260Z,12.80
2019-03-20T10:50:49.525Z,13.20
2019-03-20T10:53:18.760Z,13.40
2019-03-20T10:55:48.027Z,13.30
2019-03-20T10:58:17.308Z,13.60
2019-03-20T11:00:46.637Z,13.50
2019-03-20T11:03:16.038Z,13.10
2019-03-20T11:05:45.459Z,13.50
2019-03-20T11:08:14.762Z,13.40
2019-03-20T11:10:44.020Z,13.20
2019-03-20T11:13:13.321Z,12.90
2019-03-20T11:15:42.656Z,12.80
2019-03-20T11:18:11.991Z,12.60
2019-03-20T11:20:41.349Z,12.30
2019-03-20T11:23:10.893Z,12.30
2019-03-20T11:25:40.164Z,12.30
2019-03-20T11:28:09.496Z,12.40
2019-03-20T11:30:38.828Z,12.00
2019-03-20T11:33:08.170Z,12.10
2019-03-20T11:35:37.369Z,12.40
2019-03-20T11:38:06.701Z,12.50
2019-03-20T11:40:35.937Z,12.90
2019-03-20T11:43:06.209Z,12.90
2019-03-20T11:45:35.389Z,12.90
2019-03-20T11:48:04.994Z,13.50
2019-03-20T11:50:37.829Z,13.80
2019-03-20T11:53:07.258Z,14.20
2019-03-20T11:55:36.784Z,14.30
2019-03-20T11:58:06.257Z,13.30
2019-03-20T12:00:35.657Z,13.00
2019-03-20T12:03:05.299Z,12.90
2019-03-20T12:05:34.709Z,13.00
2019-03-20T12:08:04.663Z,13.60
2019-03-20T12:10:34.408Z,14.10
2019-03-20T12:13:03.844Z,14.20
2019-03-20T12:15:33.330Z,14.50
2019-03-20T12:18:02.602Z,14.90
2019-03-20T12:20:31.900Z,14.40
2019-03-20T12:23:01.200Z,14.30
2019-03-20T12:25:30.492Z,14.40
2019-03-20T12:27:59.835Z,14.20
2019-03-20T12:30:29.752Z,14.80
2019-03-20T12:32:59.074Z,15.40
2019-03-20T12:35:29.217Z,15.50
2019-03-20T12:37:58.542Z,15.80
2019-03-20T12:40:28.935Z,15.20
2019-03-20T12:42:58.745Z,14.80
2019-03-20T12:45:32.344Z,15.10
2019-03-20T12:48:01.648Z,15.30
2019-03-20T12:50:31.226Z,15.40
2019-03-20T12:53:01.991Z,15.70
2019-03-20T12:55:31.762Z,15.50
2019-03-20T12:58:01.067Z,15.50
2019-03-20T13:00:30.395Z,15.50
2019-03-20T13:02:59.734Z,15.40
2019-03-20T13:05:29.065Z,15.70
2019-03-20T13:08:05.498Z,15.70
2019-03-20T13:10:30.156Z,15.40
2019-03-20T13:13:00.387Z,15.50
2019-03-20T13:15:29.796Z,15.40
2019-03-20T13:17:59.081Z,14.90
2019-03-20T13:20:28.499Z,14.00
2019-03-20T13:23:00.830Z,14.20
2019-03-20T13:25:30.165Z,14.80
2019-03-20T13:27:59.843Z,15.10
2019-03-20T13:30:37.880Z,15.20
2019-03-20T13:33:07.196Z,15.00
2019-03-20T13:35:36.656Z,15.20
2019-03-20T13:38:06.172Z,15.20
2019-03-20T13:40:35.519Z,15.40
2019-03-20T13:43:04.832Z,14.90
2019-03-20T13:45:34.967Z,13.90
2019-03-20T13:48:04.343Z,13.90
2019-03-20T13:50:33.635Z,13.60
2019-03-20T13:53:02.971Z,13.70
2019-03-20T13:55:32.477Z,13.70
2019-03-20T13:58:01.810Z,13.80
2019-03-20T14:00:31.108Z,14.00
2019-03-20T14:03:00.443Z,13.70
2019-03-20T14:05:29.856Z,13.40
2019-03-20T14:07:59.338Z,13.10
2019-03-20T14:10:28.927Z,13.20
2019-03-20T14:12:58.280Z,13.20
2019-03-20T14:15:27.464Z,13.00
2019-03-20T14:17:56.786Z,12.90
2019-03-20T14:20:26.104Z,13.00
2019-03-20T14:22:55.562Z,12.90
2019-03-20T14:25:25.072Z,12.80
2019-03-20T14:27:54.452Z,12.90
2019-03-20T14:30:25.266Z,12.80
2019-03-20T14:32:54.618Z,12.90
2019-03-20T14:35:24.181Z,13.10
2019-03-20T14:37:53.669Z,13.40
2019-03-20T14:40:34.886Z,13.00
2019-03-20T14:42:56.487Z,12.80
2019-03-20T14:45:25.928Z,12.80
2019-03-20T14:47:55.254Z,12.90
2019-03-20T14:50:25.288Z,12.70
2019-03-20T14:52:54.624Z,12.80
2019-03-20T14:55:24.001Z,12.70
2019-03-20T14:57:53.286Z,12.60
2019-03-20T15:00:23.944Z,12.40
2019-03-20T15:02:53.296Z,12.40
2019-03-20T15:05:22.710Z,12.40
2019-03-20T15:07:52.034Z,12.40
2019-03-20T15:10:21.855Z,12.40
2019-03-20T15:12:51.402Z,12.50
2019-03-20T15:15:27.003Z,12.60
2019-03-20T15:17:56.278Z,12.60
2019-03-20T15:20:25.633Z,12.50
2019-03-20T15:22:54.983Z,12.50
2019-03-20T15:25:24.281Z,12.50
2019-03-20T15:27:53.500Z,12.40
2019-03-20T15:30:22.834Z,12.50
2019-03-20T15:32:52.197Z,12.40
2019-03-20T15:35:21.865Z,12.60
2019-03-20T15:37:51.163Z,12.80
2019-03-20T15:40:20.458Z,12.70
2019-03-20T15:42:49.757Z,12.40
2019-03-20T15:45:19.145Z,12.20
2019-03-20T15:47:48.423Z,12.20
2019-03-20T15:50:18.639Z,12.20
2019-03-20T15:52:48.255Z,12.20
2019-03-20T15:55:23.368Z,12.10
2019-03-20T15:57:52.732Z,12.10
2019-03-20T16:00:22.027Z,12.00
2019-03-20T16:02:52.290Z,12.00
2019-03-20T16:05:21.629Z,11.90
2019-03-20T16:07:51.012Z,11.90
2019-03-20T16:10:21.196Z,11.90
2019-03-20T16:12:50.844Z,11.90
2019-03-20T16:15:20.673Z,11.90
2019-03-20T16:17:50.323Z,11.80
2019-03-20T16:20:19.693Z,11.70
2019-03-20T16:22:49.065Z,11.70
2019-03-20T16:25:18.393Z,11.70
2019-03-20T16:27:47.672Z,11.60
2019-03-20T16:30:18.851Z,11.60
2019-03-20T16:32:48.627Z,11.60
2019-03-20T16:35:17.939Z,11.50
2019-03-20T16:37:47.202Z,11.50
2019-03-20T16:40:21.043Z,11.50
2019-03-20T16:42:50.420Z,11.40
2019-03-20T16:45:21.848Z,11.30
2019-03-20T16:47:51.244Z,11.30
2019-03-20T16:50:20.794Z,11.20
2019-03-20T16:52:50.110Z,11.30
2019-03-20T16:55:19.418Z,11.20
2019-03-20T16:57:48.774Z,11.10
2019-03-20T17:00:23.098Z,11.10
2019-03-20T17:02:52.375Z,11.00
2019-03-20T17:05:22.965Z,10.90
2019-03-20T17:07:52.379Z,11.00
2019-03-20T17:10:23.982Z,10.90
2019-03-20T17:12:53.651Z,10.80
2019-03-20T17:15:23.863Z,10.80
2019-03-20T17:17:53.229Z,10.70
2019-03-20T17:20:23.491Z,10.60
2019-03-20T17:22:52.808Z,10.60
2019-03-20T17:25:22.177Z,10.50
2019-03-20T17:27:51.449Z,10.50
2019-03-20T17:30:25.588Z,10.40
2019-03-20T17:32:55.103Z,10.40
2019-03-20T17:35:24.463Z,10.30
2019-03-20T17:37:53.946Z,10.20
2019-03-20T17:40:23.308Z,10.10
2019-03-20T17:42:52.700Z,10.10
2019-03-20T17:45:22.561Z,10.00
2019-03-20T17:47:51.820Z,9.90
2019-03-20T17:50:22.909Z,9.80
2019-03-20T17:52:52.309Z,9.80
2019-03-20T17:55:21.790Z,9.70
2019-03-20T17:57:51.421Z,9.60
2019-03-20T18:00:25.005Z,9.50
2019-03-20T18:02:54.624Z,9.40
2019-03-20T18:05:23.874Z,9.30
2019-03-20T18:07:53.306Z,9.30
2019-03-20T18:10:22.613Z,9.20
2019-03-20T18:12:51.973Z,9.10
2019-03-20T18:15:21.391Z,9.00
2019-03-20T18:17:50.934Z,8.90
2019-03-20T18:20:20.256Z,8.80
2019-03-20T18:22:49.593Z,8.80
2019-03-20T18:25:18.909Z,8.70
2019-03-20T18:27:48.297Z,8.70
2019-03-20T18:30:19.611Z,8.60
2019-03-20T18:32:49.032Z,8.60
2019-03-20T18:35:18.449Z,8.60
2019-03-20T18:37:47.727Z,8.50
2019-03-20T18:40:17.830Z,8.50
2019-03-20T18:42:47.219Z,8.40
2019-03-20T18:45:17.465Z,8.40
2019-03-20T18:47:46.890Z,8.20
2019-03-20T18:50:17.142Z,8.20
2019-03-20T18:52:46.416Z,8.20
2019-03-20T18:55:16.140Z,8.30
2019-03-20T18:57:45.439Z,8.20
2019-03-20T19:00:19.760Z,8.20
2019-03-20T19:02:49.199Z,8.10
2019-03-20T19:05:33.773Z,8.00
2019-03-20T19:08:03.301Z,8.00
2019-03-20T19:10:32.951Z,8.00
2019-03-20T19:13:02.345Z,7.90
2019-03-20T19:15:31.694Z,7.80
2019-03-20T19:18:02.435Z,7.80
2019-03-20T19:20:31.854Z,7.80
2019-03-20T19:23:01.175Z,7.70
2019-03-20T19:25:30.540Z,7.70
2019-03-20T19:27:59.846Z,7.70
2019-03-20T19:30:29.222Z,7.70
2019-03-20T19:32:58.938Z,7.70
2019-03-20T19:35:28.281Z,7.70
2019-03-20T19:37:57.622Z,7.70
2019-03-20T19:40:26.944Z,7.70
2019-03-20T19:42:56.312Z,7.70
2019-03-20T19:45:25.949Z,7.60
2019-03-20T19:47:55.305Z,7.60
2019-03-20T19:50:24.574Z,7.40
2019-03-20T19:52:53.879Z,7.40
2019-03-20T19:55:23.238Z,7.30
2019-03-20T19:57:52.552Z,7.30
2019-03-20T20:00:22.228Z,7.10
2019-03-20T20:02:51.529Z,7.00
2019-03-20T20:05:20.827Z,6.90
2019-03-20T20:07:50.203Z,6.70
2019-03-20T20:10:19.535Z,6.70
2019-03-20T20:12:49.146Z,6.60
2019-03-20T20:15:20.074Z,6.70
2019-03-20T20:17:49.497Z,6.80
2019-03-20T20:20:19.687Z,6.80
2019-03-20T20:22:49.164Z,6.80
2019-03-20T20:25:18.575Z,6.80
2019-03-20T20:27:48.143Z,6.70
2019-03-20T20:30:17.808Z,6.60
2019-03-20T20:32:47.178Z,6.60
2019-03-20T20:35:16.643Z,6.70
2019-03-20T20:37:46.019Z,6.60
2019-03-20T20:40:17.208Z,6.30
2019-03-20T20:42:46.829Z,6.20
2019-03-20T20:45:16.298Z,6.20
2019-03-20T20:47:45.625Z,6.20
2019-03-20T20:50:15.045Z,6.20
2019-03-20T20:52:44.801Z,6.30
2019-03-20T20:55:14.172Z,6.20
2019-03-20T20:57:43.595Z,6.10
2019-03-20T21:00:15.638Z,5.80
2019-03-20T21:02:44.967Z,5.70
2019-03-20T21:05:14.516Z,5.60
2019-03-20T21:07:45.221Z,5.70
2019-03-20T21:10:15.092Z,5.60
2019-03-20T21:12:55.456Z,5.70
2019-03-20T21:15:38.885Z,5.80
2019-03-20T21:18:54.410Z,5.70
2019-03-20T21:21:25.091Z,5.50
2019-03-20T21:24:24.477Z,5.40
2019-03-20T21:27:40.710Z,5.30
2019-03-20T21:30:35.275Z,5.30
2019-03-20T21:33:05.828Z,5.50
2019-03-20T21:36:31.098Z,5.40
2019-03-20T21:39:01.175Z,5.30
2019-03-20T21:42:14.665Z,5.30
2019-03-20T21:45:19.615Z,5.30
2019-03-20T21:47:49.610Z,5.00
2019-03-20T21:51:02.677Z,4.90
2019-03-20T21:54:02.119Z,4.90
2019-03-20T21:56:36.954Z,4.90
2019-03-20T21:59:25.535Z,5.00
2019-03-20T22:02:44.303Z,4.90
2019-03-20T22:05:41.123Z,4.90
2019-03-20T22:08:10.973Z,4.90
2019-03-20T22:11:27.102Z,4.80
2019-03-20T22:14:04.084Z,4.80
2019-03-20T22:17:29.269Z,4.40
2019-03-20T22:20:33.602Z,4.40
2019-03-20T22:23:24.858Z,4.50
2019-03-20T22:26:42.447Z,4.60
2019-03-20T22:29:25.753Z,4.40
2019-03-20T22:32:15.401Z,4.20
2019-03-20T22:35:27.312Z,4.30
2019-03-20T22:37:57.793Z,4.30
2019-03-20T22:41:02.531Z,4.30
2019-03-20T22:43:42.257Z,4.40
2019-03-20T22:46:57.144Z,4.40
2019-03-20T22:50:06.826Z,4.40
2019-03-20T22:53:07.013Z,4.20
2019-03-20T22:55:44.913Z,4.20
2019-03-20T22:58:46.432Z,4.20
2019-03-20T23:01:27.399Z,4.10
2019-03-20T23:04:01.831Z,3.90
2019-03-20T23:06:31.658Z,3.90
2019-03-20T23:09:01.540Z,4.00
2019-03-20T23:11:31.350Z,4.10
2019-03-20T23:14:01.176Z,4.10
2019-03-20T23:16:31.178Z,4.00
2019-03-20T23:19:03.855Z,4.00
2019-03-20T23:21:33.853Z,4.00
2019-03-20T23:24:03.856Z,3.80
2019-03-20T23:26:33.994Z,3.80
2019-03-20T23:29:04.191Z,3.90
2019-03-20T23:31:34.360Z,3.90
2019-03-20T23:34:04.281Z,3.90
2019-03-20T23:36:34.327Z,3.70
2019-03-20T23:39:06.448Z,3.50
2019-03-20T23:41:36.294Z,3.60
2019-03-20T23:44:06.500Z,3.60
2019-03-20T23:46:36.785Z,3.50
2019-03-20T23:49:09.973Z,3.40
2019-03-20T23:51:39.934Z,3.50
2019-03-20T23:54:10.197Z,3.50
2019-03-20T23:56:40.365Z,3.50
2019-03-20T23:59:10.390Z,3.50
